Airfield :
LOGIN :

Register | Disclaimer

   EN    FR    IT 

 










Legend :    VFR   Marginal VFR   IFR   Intensive IFR   Very Intensive IFR
Visi :
Ceiling :
>= 8 km
>= 3000ft
5 to 8 km
1000 to 3000 ft
1500m to 5 km
500 to 1000 ft
800 to 1500m
200 to 500 ft
< 800m
< 200 ft
Symbols :   Thunderstorms  Fog  Heavy snow  Heavy precipitations  Wind > 20 kt
SIGMETs :     Misc.  Thunderstorms  Icing  Turbulence  Mountain Waves  Volcanic Ashes






- Airport Elevation : 28 ft
- IATA code : SOZ


LFKS - Solenzara

CURRENT METAR :
  • 280630Z AUTO 29003KT 260V330 9999 -RA FEW022/// SCT029/// BKN045/// ///TCU 10/09 Q1009

EXPIRED METARs :
  • 280600Z AUTO 27004KT 9999 -RA SCT041/// BKN052/// BKN062/// ///CB 10/08 Q1008
  • 280530Z AUTO 27004KT 9999 -RA SCT038/// OVC044/// ///CB 10/08 Q1008
  • 280500Z AUTO 27004KT 9999 SCT036 OVC064 10/08 Q1008
  • 280430Z AUTO 28003KT 250V320 9999 BKN064 OVC130 10/08 Q1008
  • 280400Z AUTO 29003KT 9999 FEW045 BKN070 OVC150 09/07 Q1008
  • 280330Z AUTO 28004KT CAVOK 09/07 Q1008
  • 280300Z AUTO VRB02KT CAVOK 09/07 Q1007
  • 280230Z AUTO 27005KT CAVOK 09/07 Q1007
  • 280200Z AUTO 27005KT 9999 FEW060 OVC240 09/07 Q1007

TAF AMD TAF LFKS
Valid from the 28 at 06:00 until the 29 at 03:00 UTC


280600Z 2806/2903 27010KT 9999 OVC030
BECMG 2806/2809 35010G25KT 4000 SHRA SCT015TCU OVC020
TEMPO 2809/2811 2000 TSRA BKN010CB OVC015
TEMPO 2813/2815 2000 TSRA BKN010CB OVC015
BECMG 2815/2818 9999 NSW SCT040TCU OVC050
TEMPO 2818/2821 2000 TSRA BKN030CB OVC040
TEMPO 2823/2902 2000 TSRA BKN030CB OVC040
BECMG 2902/2903 4000 SHRA SCT015TCU OVC020



MET'MAP, your aeronautical weather chart ! - Copyright ORBIFLY December 2007 - Disclaimer

ORBIFLY MET'MAP TEAM :

Programming & Development : Alexandra Zaïnal
Original concept : Baudouin d'Aumeries
Technical & hardware support : Manuel Goepfert
Assistance : Marc-Olivier Méhu




SOURCES & CREDITS :

   NOAA